Airfield :
LOGIN :

Register | Disclaimer

   EN    FR    IT 

 










Legend :    VFR   Marginal VFR   IFR   Intensive IFR   Very Intensive IFR
Visi :
Ceiling :
>= 8 km
>= 3000ft
5 to 8 km
1000 to 3000 ft
1500m to 5 km
500 to 1000 ft
800 to 1500m
200 to 500 ft
< 800m
< 200 ft
Symbols :   Thunderstorms  Fog  Heavy snow  Heavy precipitations  Wind > 20 kt
SIGMETs :     Misc.  Thunderstorms  Icing  Turbulence  Mountain Waves  Volcanic Ashes







- Airport Elevation : 24 ft
- IATA code : IBZ


LEIB - Ibiza

CURRENT METAR :
  • 200900Z 00000KT 9999 BCFG BKN025 13/13 Q1024 NOSIG

EXPIRED METARs :
  • 200830Z 00000KT 9999 SCT021 13/12 Q1023 NOSIG
  • 200800Z 00000KT 9999 1500S BCFG SCT025 12/11 Q1023 NOSIG
  • 200730Z 00000KT 9999 1500S BCFG SCT025 11/11 Q1023 NOSIG
  • 200700Z 00000KT 9999 R06/0650U BCFG SCT025 11/10 Q1023 NOSIG
  • 200630Z 00000KT 9999 BCFG FEW001 11/10 Q1022 NOSIG

TAF TAF LEIB
Valid from the 20 at 09:00 until the 21 at 09:00 UTC


200800Z 2009/2109 VRB03KT 9999 SCT020 TX20/2012Z TN09/2106Z
TEMPO 2010/2017 23007KT
No reported NOTAMs for that airfield.



MET'MAP, your aeronautical weather chart ! - Copyright ORBIFLY December 2007 - Disclaimer

ORBIFLY MET'MAP TEAM :

Programming & Development : Alexandra Zaïnal
Concept & Development : Baudouin d'Aumeries
Co-Development & Prog : Marc-Olivier Méhu
Technical & hardware support : Manuel Goepfert

Contact : metmap@orbifly.com




SOURCES & CREDITS :

   NOAA